createdAt,value
2019-01-15T00:02:12.651Z,22.80
2019-01-15T00:04:42.403Z,22.80
2019-01-15T00:07:12.163Z,22.80
2019-01-15T00:09:42.415Z,22.80
2019-01-15T00:12:12.195Z,22.80
2019-01-15T00:14:41.966Z,22.80
2019-01-15T00:17:12.651Z,22.80
2019-01-15T00:19:43.089Z,22.80
2019-01-15T00:22:12.848Z,22.80
2019-01-15T00:24:42.668Z,22.80
2019-01-15T00:27:12.417Z,22.80
2019-01-15T00:29:42.170Z,22.80
2019-01-15T00:32:12.502Z,22.80
2019-01-15T00:34:42.575Z,22.80
2019-01-15T00:37:12.329Z,22.80
2019-01-15T00:39:42.090Z,22.80
2019-01-15T00:42:15.432Z,22.80
2019-01-15T00:44:43.370Z,22.80
2019-01-15T00:47:13.160Z,22.80
2019-01-15T00:49:43.814Z,22.80
2019-01-15T00:52:13.651Z,22.80
2019-01-15T00:54:43.419Z,22.80
2019-01-15T00:57:13.199Z,22.80
2019-01-15T00:59:43.024Z,22.80
2019-01-15T01:02:12.934Z,22.80
2019-01-15T01:04:43.231Z,22.80
2019-01-15T01:07:13.138Z,22.80
2019-01-15T01:09:42.900Z,22.80
2019-01-15T01:12:14.150Z,22.80
2019-01-15T01:14:44.318Z,22.80
2019-01-15T01:17:14.163Z,22.80
2019-01-15T01:19:43.942Z,22.80
2019-01-15T01:22:13.751Z,22.80
2019-01-15T01:24:43.530Z,22.80
2019-01-15T01:27:13.372Z,22.80
2019-01-15T01:29:43.119Z,22.80
2019-01-15T01:32:14.082Z,22.80
2019-01-15T01:34:44.154Z,22.80
2019-01-15T01:37:13.934Z,22.80
2019-01-15T01:39:43.719Z,22.80
2019-01-15T01:42:13.488Z,22.80
2019-01-15T01:44:43.251Z,22.80
2019-01-15T01:47:13.022Z,22.80
2019-01-15T01:49:43.219Z,22.80
2019-01-15T01:52:13.601Z,22.70
2019-01-15T01:54:43.434Z,22.80
2019-01-15T01:57:13.265Z,22.80
2019-01-15T01:59:43.039Z,22.80
2019-01-15T02:02:12.949Z,22.80
2019-01-15T02:04:42.699Z,22.80
2019-01-15T02:07:12.943Z,22.70
2019-01-15T02:09:44.309Z,22.80
2019-01-15T02:12:14.373Z,22.80
2019-01-15T02:14:44.126Z,22.80
2019-01-15T02:17:13.951Z,22.80
2019-01-15T02:19:43.778Z,22.80
2019-01-15T02:22:13.638Z,22.80
2019-01-15T02:24:43.478Z,22.80
2019-01-15T02:27:13.926Z,22.80
2019-01-15T02:29:43.994Z,22.80
2019-01-15T02:32:14.931Z,22.80
2019-01-15T02:34:44.690Z,22.80
2019-01-15T02:37:14.443Z,22.80
2019-01-15T02:39:44.259Z,22.80
2019-01-15T02:42:14.056Z,22.80
2019-01-15T02:44:43.874Z,22.80
2019-01-15T02:47:13.673Z,22.80
2019-01-15T02:49:44.198Z,22.80
2019-01-15T02:52:14.631Z,22.80
2019-01-15T02:54:44.402Z,22.80
2019-01-15T02:57:14.164Z,22.80
2019-01-15T02:59:45.346Z,22.80
2019-01-15T03:02:15.239Z,22.80
2019-01-15T03:04:45.189Z,22.70
2019-01-15T03:07:16.331Z,22.80
2019-01-15T03:09:46.110Z,22.80
2019-01-15T03:12:15.942Z,22.70
2019-01-15T03:14:46.534Z,22.80
2019-01-15T03:17:16.290Z,22.70
2019-01-15T03:19:46.095Z,22.80
2019-01-15T03:22:15.842Z,22.80
2019-01-15T03:24:46.056Z,22.80
2019-01-15T03:27:15.799Z,22.80
2019-01-15T03:29:45.558Z,22.80
2019-01-15T03:32:15.598Z,22.80
2019-01-15T03:34:45.842Z,22.80
2019-01-15T03:37:15.597Z,22.70
2019-01-15T03:39:45.361Z,22.80
2019-01-15T03:42:15.110Z,22.80
2019-01-15T03:44:44.927Z,22.80
2019-01-15T03:47:14.967Z,22.70
2019-01-15T03:49:44.855Z,22.80
2019-01-15T03:52:14.602Z,22.80
2019-01-15T03:54:44.890Z,22.80
2019-01-15T03:57:15.302Z,22.80
2019-01-15T03:59:45.142Z,22.70
2019-01-15T04:02:15.724Z,22.70
2019-01-15T04:04:46.115Z,22.70
2019-01-15T04:07:17.423Z,22.80
2019-01-15T04:09:47.898Z,22.80
2019-01-15T04:12:17.710Z,22.70
2019-01-15T04:14:47.469Z,22.80
2019-01-15T04:17:17.229Z,22.70
2019-01-15T04:19:47.067Z,22.80
2019-01-15T04:22:16.955Z,22.80
2019-01-15T04:24:46.718Z,22.80
2019-01-15T04:27:16.594Z,22.80
2019-01-15T04:29:46.429Z,22.70
2019-01-15T04:32:17.098Z,22.80
2019-01-15T04:34:46.866Z,22.80
2019-01-15T04:37:16.973Z,22.80
2019-01-15T04:39:46.741Z,22.80
2019-01-15T04:42:16.490Z,22.80
2019-01-15T04:44:46.738Z,22.80
2019-01-15T04:47:17.264Z,22.80
2019-01-15T04:49:47.039Z,22.80
2019-01-15T04:52:17.094Z,22.80
2019-01-15T04:54:46.895Z,22.90
2019-01-15T04:57:17.002Z,22.80
2019-01-15T04:59:47.205Z,22.80
2019-01-15T05:02:16.974Z,22.80
2019-01-15T05:04:46.742Z,22.80
2019-01-15T05:07:16.794Z,22.80
2019-01-15T05:09:46.642Z,22.90
2019-01-15T05:12:16.418Z,22.90
2019-01-15T05:14:46.235Z,22.90
2019-01-15T05:17:16.113Z,22.80
2019-01-15T05:19:45.896Z,22.90
2019-01-15T05:22:15.770Z,22.90
2019-01-15T05:24:45.565Z,22.90
2019-01-15T05:27:15.341Z,22.90
2019-01-15T05:29:46.201Z,22.90
2019-01-15T05:32:16.992Z,22.90
2019-01-15T05:34:48.271Z,22.90
2019-01-15T05:37:18.109Z,22.90
2019-01-15T05:39:49.140Z,22.80
2019-01-15T05:42:18.990Z,22.90
2019-01-15T05:44:48.757Z,22.90
2019-01-15T05:47:20.886Z,22.90
2019-01-15T05:49:50.931Z,22.90
2019-01-15T05:52:20.646Z,22.90
2019-01-15T05:54:50.743Z,22.90
2019-01-15T05:57:20.546Z,22.90
2019-01-15T05:59:50.310Z,22.90
2019-01-15T06:02:20.234Z,22.90
2019-01-15T06:04:50.051Z,22.90
2019-01-15T06:07:19.810Z,22.90
2019-01-15T06:09:49.713Z,22.90
2019-01-15T06:12:19.494Z,22.90
2019-01-15T06:14:49.260Z,22.90
2019-01-15T06:17:19.039Z,22.90
2019-01-15T06:19:49.085Z,22.90
2019-01-15T06:22:18.922Z,22.90
2019-01-15T06:24:49.262Z,23.00
2019-01-15T06:27:19.347Z,23.00
2019-01-15T06:29:49.120Z,23.00
2019-01-15T06:32:19.736Z,23.00
2019-01-15T06:34:50.395Z,22.90
2019-01-15T06:37:20.170Z,23.00
2019-01-15T06:39:49.947Z,23.00
2019-01-15T06:42:19.751Z,23.00
2019-01-15T06:44:49.510Z,22.90
2019-01-15T06:47:19.341Z,22.90
2019-01-15T06:49:49.386Z,22.90
2019-01-15T06:52:19.258Z,22.90
2019-01-15T06:54:49.027Z,23.00
2019-01-15T06:57:18.902Z,23.00
2019-01-15T06:59:48.653Z,22.90
2019-01-15T07:02:18.541Z,22.90
2019-01-15T07:04:48.397Z,22.90
2019-01-15T07:07:18.326Z,23.00
2019-01-15T07:09:48.183Z,22.90
2019-01-15T07:12:19.056Z,22.90
2019-01-15T07:14:49.486Z,23.00
2019-01-15T07:17:19.266Z,23.00
2019-01-15T07:19:49.048Z,23.00
2019-01-15T07:22:18.903Z,22.90
2019-01-15T07:24:48.752Z,22.90
2019-01-15T07:27:18.608Z,22.90
2019-01-15T07:29:48.406Z,22.90
2019-01-15T07:32:19.579Z,22.90
2019-01-15T07:34:50.021Z,22.90
2019-01-15T07:37:20.326Z,22.90
2019-01-15T07:39:50.124Z,22.90
2019-01-15T07:42:19.890Z,22.90
2019-01-15T07:44:49.670Z,22.90
2019-01-15T07:47:20.839Z,22.90
2019-01-15T07:49:51.334Z,22.90
2019-01-15T07:52:21.956Z,23.00
2019-01-15T07:54:52.882Z,23.00
2019-01-15T07:57:23.460Z,23.00
2019-01-15T07:59:53.334Z,23.00
2019-01-15T08:02:23.262Z,23.10
2019-01-15T08:04:53.146Z,23.10
2019-01-15T08:07:24.258Z,23.10
2019-01-15T08:09:54.693Z,23.10
2019-01-15T08:12:24.537Z,23.20
2019-01-15T08:14:54.456Z,23.30
2019-01-15T08:17:24.290Z,23.30
2019-01-15T08:19:54.081Z,23.30
2019-01-15T08:22:23.900Z,23.30
2019-01-15T08:24:53.765Z,23.30
2019-01-15T08:27:23.581Z,23.30
2019-01-15T08:29:53.440Z,23.40
2019-01-15T08:32:23.527Z,23.40
2019-01-15T08:34:54.506Z,23.40
2019-01-15T08:37:26.817Z,23.40
2019-01-15T08:39:56.671Z,23.40
2019-01-15T08:42:26.567Z,23.40
2019-01-15T08:44:57.008Z,23.50
2019-01-15T08:47:28.586Z,23.50
2019-01-15T08:49:58.428Z,23.40
2019-01-15T08:52:28.270Z,23.40
2019-01-15T08:54:58.335Z,23.40
2019-01-15T08:57:28.823Z,23.30
2019-01-15T09:00:02.146Z,23.20
2019-01-15T09:02:34.250Z,23.20
2019-01-15T09:05:04.456Z,23.10
2019-01-15T09:07:34.291Z,23.10
2019-01-15T09:10:05.416Z,23.00
2019-01-15T09:12:35.436Z,23.00
2019-01-15T09:15:06.642Z,23.00
2019-01-15T09:17:36.720Z,23.00
2019-01-15T09:20:08.735Z,23.10
2019-01-15T09:22:38.834Z,23.10
2019-01-15T09:25:08.962Z,23.10
2019-01-15T09:27:38.951Z,23.10
2019-01-15T09:30:17.256Z,23.10
2019-01-15T09:32:48.348Z,23.10
2019-01-15T09:35:18.699Z,23.20
2019-01-15T09:37:50.499Z,23.20
2019-01-15T09:40:22.173Z,23.20
2019-01-15T09:42:52.039Z,23.20
2019-01-15T09:45:23.539Z,23.20
2019-01-15T09:48:10.395Z,23.30
2019-01-15T09:50:40.302Z,23.30
2019-01-15T09:53:11.575Z,23.30
2019-01-15T09:55:41.502Z,23.30
2019-01-15T09:58:12.075Z,23.40
2019-01-15T10:00:41.846Z,23.40
2019-01-15T10:03:11.739Z,23.50
2019-01-15T10:05:41.763Z,23.50
2019-01-15T10:08:11.562Z,23.50
2019-01-15T10:10:41.393Z,23.50
2019-01-15T10:13:11.570Z,23.60
2019-01-15T10:15:41.678Z,23.60
2019-01-15T10:18:11.496Z,23.60
2019-01-15T10:20:41.398Z,23.60
2019-01-15T10:23:11.251Z,23.60
2019-01-15T10:25:42.534Z,23.60
2019-01-15T10:28:13.138Z,23.60
2019-01-15T10:31:08.343Z,23.70
2019-01-15T10:33:44.221Z,23.70
2019-01-15T10:36:14.179Z,23.70
2019-01-15T10:38:45.505Z,23.70
2019-01-15T10:41:18.403Z,23.70
2019-01-15T10:43:48.387Z,23.60
2019-01-15T10:46:21.288Z,23.60
2019-01-15T10:48:50.398Z,23.70
2019-01-15T10:51:20.158Z,23.70
2019-01-15T10:53:50.130Z,23.70
2019-01-15T10:56:19.931Z,23.60
2019-01-15T10:58:50.782Z,23.60
2019-01-15T11:01:20.922Z,23.70
2019-01-15T11:03:50.701Z,23.70
2019-01-15T11:06:20.576Z,23.70
2019-01-15T11:08:51.518Z,23.70
2019-01-15T11:11:21.690Z,23.50
2019-01-15T11:13:52.206Z,23.50
2019-01-15T11:16:22.075Z,23.50
2019-01-15T11:18:52.233Z,23.50
2019-01-15T11:21:22.090Z,23.60
2019-01-15T11:23:52.134Z,23.60
2019-01-15T11:26:22.043Z,23.60
2019-01-15T11:28:51.975Z,23.70
2019-01-15T11:31:21.777Z,23.70
2019-01-15T11:33:52.133Z,23.70
2019-01-15T11:36:22.623Z,23.70
2019-01-15T11:38:53.365Z,23.70
2019-01-15T11:41:23.205Z,23.70
2019-01-15T11:43:52.970Z,23.80
2019-01-15T11:46:22.959Z,23.80
2019-01-15T11:48:54.495Z,23.80
2019-01-15T11:51:25.134Z,23.70
2019-01-15T11:53:54.944Z,23.80
2019-01-15T11:56:25.885Z,23.80
2019-01-15T11:58:58.658Z,23.80
2019-01-15T12:01:38.944Z,23.80
2019-01-15T12:04:30.799Z,23.80
2019-01-15T12:07:22.642Z,23.80
2019-01-15T12:10:05.503Z,23.80
2019-01-15T12:12:55.375Z,23.80
2019-01-15T12:15:50.943Z,23.80
2019-01-15T12:18:39.007Z,23.80
2019-01-15T12:21:31.370Z,23.80
2019-01-15T12:24:20.871Z,23.80
2019-01-15T12:27:10.238Z,23.90
2019-01-15T12:30:02.546Z,23.90
2019-01-15T12:33:08.162Z,23.90
2019-01-15T12:35:49.970Z,23.90
2019-01-15T12:38:46.484Z,23.90
2019-01-15T12:41:42.057Z,23.90
2019-01-15T12:44:42.741Z,23.90
2019-01-15T12:47:49.959Z,23.90
2019-01-15T12:50:32.804Z,23.90
2019-01-15T12:53:21.588Z,24.00
2019-01-15T12:56:15.201Z,23.90
2019-01-15T12:59:04.422Z,23.90
2019-01-15T13:01:51.266Z,24.00
2019-01-15T13:04:43.078Z,24.00
2019-01-15T13:07:30.835Z,24.00
2019-01-15T13:10:20.287Z,24.00
2019-01-15T13:13:07.576Z,24.00
2019-01-15T13:16:14.986Z,24.00
2019-01-15T13:19:04.498Z,24.10
2019-01-15T13:21:43.370Z,24.10
2019-01-15T13:24:35.801Z,24.10
2019-01-15T13:27:33.712Z,24.10
2019-01-15T13:30:11.917Z,24.10
2019-01-15T13:33:10.574Z,24.10
2019-01-15T13:35:50.956Z,24.10
2019-01-15T13:38:32.403Z,24.10
2019-01-15T13:41:20.401Z,24.10
2019-01-15T13:44:15.209Z,24.10
2019-01-15T13:47:10.070Z,24.10
2019-01-15T13:50:05.121Z,24.10
2019-01-15T13:52:44.928Z,24.10
2019-01-15T13:55:31.466Z,24.10
2019-01-15T13:58:28.433Z,24.10
2019-01-15T14:01:17.749Z,24.10
2019-01-15T14:04:12.731Z,24.10
2019-01-15T14:07:04.672Z,24.10
2019-01-15T14:09:44.024Z,24.10
2019-01-15T14:12:23.030Z,24.20
2019-01-15T14:15:21.920Z,24.10
2019-01-15T14:18:18.658Z,24.10
2019-01-15T14:21:06.396Z,24.10
2019-01-15T14:23:44.079Z,24.10
2019-01-15T14:26:43.336Z,24.10
2019-01-15T14:29:26.016Z,24.10
2019-01-15T14:32:18.409Z,24.10
2019-01-15T14:35:07.555Z,24.10
2019-01-15T14:37:55.082Z,24.20
2019-01-15T14:40:43.462Z,24.20
2019-01-15T14:43:35.658Z,24.20
2019-01-15T14:46:23.726Z,24.20
2019-01-15T14:49:12.334Z,24.20
2019-01-15T14:51:54.064Z,24.20
2019-01-15T14:54:51.961Z,24.20
2019-01-15T14:57:50.929Z,24.20
2019-01-15T15:00:39.007Z,24.30
2019-01-15T15:03:20.290Z,24.30
2019-01-15T15:06:27.398Z,24.30
2019-01-15T15:09:29.490Z,24.30
2019-01-15T15:12:18.417Z,24.30
2019-01-15T15:15:03.822Z,24.30
2019-01-15T15:17:55.032Z,24.30
2019-01-15T15:20:50.845Z,24.30
2019-01-15T15:23:46.856Z,24.30
2019-01-15T15:26:44.908Z,24.30
2019-01-15T15:29:43.756Z,24.20
2019-01-15T15:32:24.690Z,24.20
2019-01-15T15:35:25.811Z,24.20
2019-01-15T15:38:06.540Z,24.10
2019-01-15T15:40:55.858Z,24.10
2019-01-15T15:43:54.729Z,24.10
2019-01-15T15:46:36.107Z,24.00
2019-01-15T15:49:16.533Z,24.00
2019-01-15T15:52:00.612Z,24.00
2019-01-15T15:54:47.611Z,24.00
2019-01-15T15:57:27.256Z,24.00
2019-01-15T16:00:15.198Z,23.90
2019-01-15T16:02:59.142Z,23.90
2019-01-15T16:05:47.602Z,23.90
2019-01-15T16:08:47.390Z,23.90
2019-01-15T16:11:34.981Z,23.90
2019-01-15T16:14:30.595Z,23.90
2019-01-15T16:17:12.287Z,23.80
2019-01-15T16:20:16.958Z,23.80
2019-01-15T16:23:17.323Z,23.80
2019-01-15T16:26:19.294Z,23.80
2019-01-15T16:29:11.059Z,23.80
2019-01-15T16:32:08.674Z,23.80
2019-01-15T16:35:02.798Z,23.70
2019-01-15T16:37:51.317Z,23.70
2019-01-15T16:40:49.649Z,23.70
2019-01-15T16:43:46.462Z,23.70
2019-01-15T16:46:35.003Z,23.60
2019-01-15T16:49:37.029Z,23.60
2019-01-15T16:52:44.814Z,23.60
2019-01-15T16:55:35.543Z,23.60
2019-01-15T16:58:32.373Z,23.60
2019-01-15T17:01:27.928Z,23.60
2019-01-15T17:04:20.070Z,23.60
2019-01-15T17:07:09.040Z,23.60
2019-01-15T17:10:07.276Z,23.60
2019-01-15T17:13:00.464Z,23.60
2019-01-15T17:15:53.301Z,23.50
2019-01-15T17:18:46.359Z,23.60
2019-01-15T17:21:35.036Z,23.50
2019-01-15T17:24:33.995Z,23.50
2019-01-15T17:27:26.694Z,23.50
2019-01-15T17:30:15.566Z,23.50
2019-01-15T17:33:08.511Z,23.50
2019-01-15T17:35:57.664Z,23.50
2019-01-15T17:38:53.688Z,23.50
2019-01-15T17:41:48.374Z,23.50
2019-01-15T17:44:59.098Z,23.40
2019-01-15T17:47:47.186Z,23.50
2019-01-15T17:50:43.149Z,23.40
2019-01-15T17:53:39.438Z,23.40
2019-01-15T17:56:30.696Z,23.40
2019-01-15T17:59:20.443Z,23.40
2019-01-15T18:02:14.443Z,23.40
2019-01-15T18:05:02.654Z,23.40
2019-01-15T18:07:51.099Z,23.40
2019-01-15T18:10:43.851Z,23.40
2019-01-15T18:13:36.742Z,23.40
2019-01-15T18:16:48.388Z,23.40
2019-01-15T18:19:31.483Z,23.40
2019-01-15T18:22:21.396Z,23.40
2019-01-15T18:25:23.376Z,23.40
2019-01-15T18:28:16.164Z,23.40
2019-01-15T18:31:11.858Z,23.40
2019-01-15T18:34:11.563Z,23.30
2019-01-15T18:37:00.572Z,23.40
2019-01-15T18:39:58.349Z,23.40
2019-01-15T18:42:54.883Z,23.30
2019-01-15T18:45:54.120Z,23.30
2019-01-15T18:48:37.669Z,23.30
2019-01-15T18:51:23.962Z,23.30
2019-01-15T18:54:25.783Z,23.30
2019-01-15T18:57:07.738Z,23.30
2019-01-15T18:59:50.943Z,23.30
2019-01-15T19:02:35.190Z,23.30
2019-01-15T19:05:31.494Z,23.30
2019-01-15T19:08:18.794Z,23.30
2019-01-15T19:11:17.350Z,23.30
2019-01-15T19:14:07.127Z,23.30
2019-01-15T19:16:45.302Z,23.30
2019-01-15T19:19:25.378Z,23.30
2019-01-15T19:22:07.805Z,23.30
2019-01-15T19:24:55.130Z,23.30
2019-01-15T19:27:38.162Z,23.30
2019-01-15T19:30:35.362Z,23.30
2019-01-15T19:33:24.210Z,23.30
2019-01-15T19:36:13.338Z,23.30
2019-01-15T19:39:11.327Z,23.30
2019-01-15T19:41:52.421Z,23.30
2019-01-15T19:44:41.190Z,23.30
2019-01-15T19:47:28.571Z,23.20
2019-01-15T19:50:12.050Z,23.20
2019-01-15T19:53:16.013Z,23.30
2019-01-15T19:56:12.574Z,23.20
2019-01-15T19:59:13.598Z,23.20
2019-01-15T20:02:11.975Z,23.20
2019-01-15T20:04:56.064Z,23.20
2019-01-15T20:07:36.491Z,23.30
2019-01-15T20:10:25.434Z,23.20
2019-01-15T20:13:14.418Z,23.20
2019-01-15T20:16:02.016Z,23.30
2019-01-15T20:18:52.234Z,23.30
2019-01-15T20:21:49.938Z,23.30
2019-01-15T20:24:29.594Z,23.30
2019-01-15T20:27:12.679Z,23.30
2019-01-15T20:30:00.184Z,23.30
2019-01-15T20:32:49.809Z,23.30
2019-01-15T20:35:31.323Z,23.20
2019-01-15T20:38:20.202Z,23.20
2019-01-15T20:41:07.763Z,23.20
2019-01-15T20:44:06.459Z,23.20
2019-01-15T20:47:02.185Z,23.20
2019-01-15T20:49:49.494Z,23.20
2019-01-15T20:52:33.144Z,23.10
2019-01-15T20:55:20.727Z,23.10
2019-01-15T20:58:12.476Z,23.20
2019-01-15T21:01:07.351Z,23.20
2019-01-15T21:03:55.155Z,23.20
2019-01-15T21:06:46.940Z,23.20
2019-01-15T21:09:27.258Z,23.20
2019-01-15T21:12:21.996Z,23.30
2019-01-15T21:15:09.346Z,23.20
2019-01-15T21:17:57.346Z,23.20
2019-01-15T21:20:45.511Z,23.20
2019-01-15T21:23:33.162Z,23.20
2019-01-15T21:26:27.996Z,23.30
2019-01-15T21:29:15.567Z,23.20
2019-01-15T21:32:05.454Z,23.20
2019-01-15T21:34:53.067Z,23.20
2019-01-15T21:37:40.412Z,23.10
2019-01-15T21:40:47.514Z,23.20
2019-01-15T21:43:35.994Z,23.10
2019-01-15T21:46:23.694Z,23.10
2019-01-15T21:49:11.367Z,23.10
2019-01-15T21:51:58.334Z,23.10
2019-01-15T21:54:42.859Z,23.10
2019-01-15T21:57:31.835Z,23.20
2019-01-15T22:00:16.502Z,23.20
2019-01-15T22:02:57.866Z,23.10
2019-01-15T22:05:45.282Z,23.10
2019-01-15T22:08:28.187Z,23.10
2019-01-15T22:11:17.690Z,23.20
2019-01-15T22:14:05.256Z,23.20
2019-01-15T22:16:52.602Z,23.20
2019-01-15T22:19:47.714Z,23.20
2019-01-15T22:22:34.256Z,23.20
2019-01-15T22:25:22.594Z,23.20
2019-01-15T22:28:17.482Z,23.20
2019-01-15T22:31:09.183Z,23.20
2019-01-15T22:33:58.142Z,23.20
2019-01-15T22:36:46.193Z,23.20
2019-01-15T22:39:33.655Z,23.10
2019-01-15T22:42:15.534Z,23.10
2019-01-15T22:45:04.507Z,23.10
2019-01-15T22:47:47.291Z,23.10
2019-01-15T22:50:34.965Z,23.10
2019-01-15T22:53:35.938Z,23.10
2019-01-15T22:56:18.215Z,23.10
2019-01-15T22:59:06.156Z,23.10
2019-01-15T23:01:58.015Z,23.10
2019-01-15T23:04:40.061Z,23.10
2019-01-15T23:07:27.500Z,23.10
2019-01-15T23:10:19.622Z,23.10
2019-01-15T23:13:18.230Z,23.10
2019-01-15T23:16:12.978Z,23.10
2019-01-15T23:19:00.644Z,23.10
2019-01-15T23:21:49.629Z,23.10
2019-01-15T23:24:31.495Z,23.10
2019-01-15T23:27:19.738Z,23.10
2019-01-15T23:30:14.575Z,23.10
2019-01-15T23:32:57.334Z,23.10
2019-01-15T23:35:37.521Z,23.10
2019-01-15T23:38:14.546Z,23.10
2019-01-15T23:41:03.483Z,23.10
2019-01-15T23:43:44.930Z,23.10
2019-01-15T23:46:29.338Z,23.10
2019-01-15T23:49:10.705Z,23.10
2019-01-15T23:52:17.698Z,23.10
2019-01-15T23:55:14.423Z,23.10
2019-01-15T23:57:52.899Z,23.10
